createdAt,value
2024-02-08T00:01:50.702Z,9.52
2024-02-08T00:04:18.968Z,9.26
2024-02-08T00:06:47.331Z,9.22
2024-02-08T00:09:15.694Z,9.27
2024-02-08T00:11:44.213Z,9.52
2024-02-08T00:14:12.433Z,9.56
2024-02-08T00:16:40.800Z,9.61
2024-02-08T00:19:09.172Z,9.65
2024-02-08T00:21:38.778Z,9.70
2024-02-08T00:24:06.879Z,9.68
2024-02-08T00:26:35.209Z,9.90
2024-02-08T00:29:03.518Z,10.01
2024-02-08T00:31:32.274Z,9.91
2024-02-08T00:34:00.459Z,9.89
2024-02-08T00:36:29.045Z,10.08
2024-02-08T00:38:57.334Z,10.14
2024-02-08T00:41:25.727Z,10.03
2024-02-08T00:43:54.346Z,9.86
2024-02-08T00:46:22.763Z,9.85
2024-02-08T00:48:50.965Z,9.59
2024-02-08T00:51:19.310Z,9.62
2024-02-08T00:53:47.490Z,9.61
2024-02-08T00:56:17.003Z,9.46
2024-02-08T00:58:48.338Z,9.50
2024-02-08T01:01:19.106Z,9.66
2024-02-08T01:03:47.732Z,9.88
2024-02-08T01:06:16.019Z,10.05
2024-02-08T01:08:44.394Z,9.94
2024-02-08T01:11:12.751Z,9.81
2024-02-08T01:13:41.034Z,9.68
2024-02-08T01:16:12.671Z,9.67
2024-02-08T01:18:43.117Z,9.60
2024-02-08T01:21:11.608Z,9.77
2024-02-08T01:23:40.360Z,9.71
2024-02-08T01:26:10.821Z,9.49
2024-02-08T01:28:39.322Z,9.46
2024-02-08T01:31:07.611Z,9.33
2024-02-08T01:33:38.494Z,9.06
2024-02-08T01:36:07.001Z,9.01
2024-02-08T01:38:36.389Z,9.11
2024-02-08T01:41:07.594Z,9.34
2024-02-08T01:43:36.052Z,9.50
2024-02-08T01:46:04.662Z,9.42
2024-02-08T01:48:33.043Z,9.05
2024-02-08T01:51:03.808Z,8.92
2024-02-08T01:53:33.606Z,9.05
2024-02-08T01:56:03.977Z,9.07
2024-02-08T01:58:34.725Z,9.05
2024-02-08T02:01:11.712Z,8.86
2024-02-08T02:03:41.378Z,8.51
2024-02-08T02:06:10.093Z,8.31
2024-02-08T02:08:39.847Z,8.27
2024-02-08T02:11:17.688Z,8.19
2024-02-08T02:13:48.523Z,8.13
2024-02-08T02:16:16.847Z,8.25
2024-02-08T02:18:45.258Z,8.36
2024-02-08T02:21:15.474Z,8.65
2024-02-08T02:23:46.044Z,8.62
2024-02-08T02:26:15.720Z,8.54
2024-02-08T02:28:44.834Z,8.58
2024-02-08T02:31:15.097Z,8.67
2024-02-08T02:33:45.297Z,8.68
2024-02-08T02:36:16.555Z,8.85
2024-02-08T02:38:46.505Z,8.95
2024-02-08T02:41:14.900Z,8.96
2024-02-08T02:43:45.868Z,9.09
2024-02-08T02:46:14.338Z,9.19
2024-02-08T02:48:43.083Z,9.22
2024-02-08T02:51:13.547Z,9.23
2024-02-08T02:53:42.158Z,8.97
2024-02-08T02:56:10.777Z,8.82
2024-02-08T02:58:39.410Z,8.76
2024-02-08T03:01:07.936Z,8.57
2024-02-08T03:03:39.621Z,8.47
2024-02-08T03:06:15.909Z,8.71
2024-02-08T03:08:46.571Z,8.79
2024-02-08T03:11:15.526Z,8.57
2024-02-08T03:13:47.886Z,8.53
2024-02-08T03:16:18.555Z,8.65
2024-02-08T03:18:50.262Z,8.66
2024-02-08T03:21:19.700Z,8.43
2024-02-08T03:23:51.721Z,8.42
2024-02-08T03:26:19.916Z,8.43
2024-02-08T03:28:50.468Z,8.45
2024-02-08T03:31:19.054Z,8.36
2024-02-08T03:33:47.526Z,8.47
2024-02-08T03:36:15.820Z,8.43
2024-02-08T03:38:45.609Z,8.03
2024-02-08T03:41:14.175Z,8.01
2024-02-08T03:43:42.686Z,7.92
2024-02-08T03:46:12.023Z,7.85
2024-02-08T03:48:41.492Z,8.03
2024-02-08T03:51:12.244Z,8.06
2024-02-08T03:53:40.550Z,7.71
2024-02-08T03:56:08.970Z,7.86
2024-02-08T03:58:37.870Z,8.08
2024-02-08T04:01:10.269Z,8.00
2024-02-08T04:03:54.576Z,8.19
2024-02-08T04:06:39.877Z,8.43
2024-02-08T04:09:08.349Z,8.68
2024-02-08T04:12:00.229Z,8.92
2024-02-08T04:14:47.407Z,9.12
2024-02-08T04:17:34.669Z,9.31
2024-02-08T04:20:21.684Z,9.34
2024-02-08T04:23:08.607Z,9.24
2024-02-08T04:25:55.840Z,9.27
2024-02-08T04:28:42.917Z,9.43
2024-02-08T04:31:29.893Z,9.53
2024-02-08T04:34:16.720Z,9.72
2024-02-08T04:37:03.839Z,9.70
2024-02-08T04:39:50.492Z,9.72
2024-02-08T04:42:37.436Z,9.67
2024-02-08T04:45:25.017Z,9.65
2024-02-08T04:48:12.091Z,9.20
2024-02-08T04:50:59.838Z,8.93
2024-02-08T04:53:46.735Z,8.84
2024-02-08T04:56:19.788Z,8.69
2024-02-08T04:59:08.670Z,8.67
2024-02-08T05:01:39.793Z,8.74
2024-02-08T05:04:08.969Z,8.63
2024-02-08T05:06:37.346Z,8.89
2024-02-08T05:09:05.910Z,9.31
2024-02-08T05:11:38.488Z,9.50
2024-02-08T05:14:07.368Z,9.56
2024-02-08T05:16:38.533Z,9.65
2024-02-08T05:19:07.378Z,9.70
2024-02-08T05:21:42.474Z,9.83
2024-02-08T05:24:15.427Z,9.81
2024-02-08T05:26:44.894Z,9.57
2024-02-08T05:29:21.279Z,9.28
2024-02-08T05:31:51.415Z,9.25
2024-02-08T05:34:20.095Z,9.50
2024-02-08T05:36:51.034Z,9.61
2024-02-08T05:39:27.644Z,9.56
2024-02-08T05:41:58.921Z,9.33
2024-02-08T05:44:32.339Z,9.29
2024-02-08T05:47:10.607Z,9.04
2024-02-08T05:49:47.728Z,9.02
2024-02-08T05:52:17.039Z,9.14
2024-02-08T05:54:48.321Z,9.05
2024-02-08T05:57:16.973Z,9.09
2024-02-08T05:59:46.753Z,9.03
2024-02-08T06:02:17.255Z,8.96
2024-02-08T06:04:52.977Z,9.08
2024-02-08T06:07:22.815Z,9.17
2024-02-08T06:10:09.637Z,9.22
2024-02-08T06:12:45.817Z,9.32
2024-02-08T06:15:34.564Z,9.04
2024-02-08T06:18:06.772Z,9.00
2024-02-08T06:20:42.879Z,9.08
2024-02-08T06:23:19.441Z,9.18
2024-02-08T06:26:10.714Z,9.73
2024-02-08T06:28:54.629Z,9.99
2024-02-08T06:31:35.394Z,9.80
2024-02-08T06:34:29.342Z,9.80
2024-02-08T06:37:17.769Z,10.00
2024-02-08T06:39:57.476Z,9.93
2024-02-08T06:42:39.153Z,9.95
2024-02-08T06:45:47.202Z,10.08
2024-02-08T06:48:35.708Z,10.48
2024-02-08T06:51:24.528Z,10.71
2024-02-08T06:54:11.802Z,10.77
2024-02-08T06:56:58.652Z,10.75
2024-02-08T06:59:45.978Z,10.93
2024-02-08T07:02:32.803Z,11.21
2024-02-08T07:05:19.547Z,11.29
2024-02-08T07:08:06.840Z,11.60
2024-02-08T07:10:54.078Z,11.84
2024-02-08T07:13:40.888Z,11.85
2024-02-08T07:16:27.682Z,11.86
2024-02-08T07:19:14.747Z,12.08
2024-02-08T07:22:01.547Z,12.32
2024-02-08T07:24:48.721Z,12.59
2024-02-08T07:27:36.460Z,12.82
2024-02-08T07:30:24.098Z,13.04
2024-02-08T07:33:11.327Z,13.27
2024-02-08T07:36:09.131Z,13.14
2024-02-08T07:39:00.209Z,12.77
2024-02-08T07:41:30.060Z,12.93
2024-02-08T07:43:58.239Z,12.98
2024-02-08T07:46:32.198Z,12.98
2024-02-08T07:49:07.236Z,12.86
2024-02-08T07:51:35.989Z,13.02
2024-02-08T07:54:11.960Z,13.17
2024-02-08T07:57:02.281Z,13.42
2024-02-08T07:59:36.252Z,13.75
2024-02-08T08:02:13.417Z,14.04
2024-02-08T08:04:55.226Z,14.31
2024-02-08T08:07:24.690Z,14.74
2024-02-08T08:10:08.951Z,15.02
2024-02-08T08:12:37.842Z,15.26
2024-02-08T08:15:09.840Z,15.28
2024-02-08T08:18:01.525Z,15.18
2024-02-08T08:20:49.303Z,15.10
2024-02-08T08:23:27.439Z,14.82
2024-02-08T08:26:22.953Z,14.78
2024-02-08T08:28:54.172Z,14.95
2024-02-08T08:31:42.527Z,14.89
2024-02-08T08:34:31.309Z,14.89
2024-02-08T08:37:00.566Z,14.92
2024-02-08T08:39:48.455Z,14.94
2024-02-08T08:42:18.264Z,14.97
2024-02-08T08:44:50.438Z,14.97
2024-02-08T08:47:19.386Z,14.81
2024-02-08T08:49:52.475Z,14.70
2024-02-08T08:52:27.392Z,14.53
2024-02-08T08:55:12.260Z,14.66
2024-02-08T08:57:40.952Z,14.81
2024-02-08T09:00:12.807Z,15.01
2024-02-08T09:02:43.818Z,15.20
2024-02-08T09:05:19.347Z,15.42
2024-02-08T09:07:48.761Z,15.16
2024-02-08T09:10:17.108Z,15.18
2024-02-08T09:13:01.173Z,15.33
2024-02-08T09:15:29.877Z,15.32
2024-02-08T09:18:10.575Z,15.46
2024-02-08T09:20:39.950Z,15.48
2024-02-08T09:23:14.750Z,15.54
2024-02-08T09:25:47.627Z,15.54
2024-02-08T09:28:28.529Z,15.41
2024-02-08T09:30:59.771Z,15.51
2024-02-08T09:33:32.136Z,15.59
2024-02-08T09:36:01.172Z,15.66
2024-02-08T09:38:44.790Z,15.61
2024-02-08T09:41:25.455Z,15.67
2024-02-08T09:43:58.905Z,15.90
2024-02-08T09:46:35.898Z,16.04
2024-02-08T09:49:23.552Z,16.07
2024-02-08T09:51:55.428Z,16.08
2024-02-08T09:54:30.974Z,16.00
2024-02-08T09:57:10.294Z,15.86
2024-02-08T09:59:57.273Z,15.67
2024-02-08T10:02:34.513Z,15.25
2024-02-08T10:05:21.250Z,15.21
2024-02-08T10:08:09.571Z,15.33
2024-02-08T10:11:01.240Z,15.40
2024-02-08T10:13:53.651Z,15.56
2024-02-08T10:16:31.878Z,15.59
2024-02-08T10:19:05.636Z,15.59
2024-02-08T10:21:37.786Z,15.66
2024-02-08T10:24:26.940Z,15.85
2024-02-08T10:27:00.482Z,16.07
2024-02-08T10:29:33.967Z,16.17
2024-02-08T10:32:02.834Z,16.33
2024-02-08T10:34:35.587Z,16.35
2024-02-08T10:37:08.351Z,16.38
2024-02-08T10:39:59.784Z,16.29
2024-02-08T10:42:40.047Z,16.30
2024-02-08T10:45:09.552Z,16.32
2024-02-08T10:47:42.697Z,16.29
2024-02-08T10:50:22.149Z,16.21
2024-02-08T10:52:53.135Z,16.00
2024-02-08T10:55:32.041Z,15.89
2024-02-08T10:58:10.284Z,16.11
2024-02-08T11:00:42.992Z,16.27
2024-02-08T11:03:35.152Z,16.49
2024-02-08T11:06:06.035Z,16.67
2024-02-08T11:08:34.988Z,16.77
2024-02-08T11:11:13.810Z,16.82
2024-02-08T11:13:45.159Z,16.54
2024-02-08T11:16:25.396Z,16.30
2024-02-08T11:18:56.321Z,15.87
2024-02-08T11:21:45.404Z,15.85
2024-02-08T11:24:30.068Z,16.22
2024-02-08T11:27:03.992Z,16.44
2024-02-08T11:29:43.476Z,16.60
2024-02-08T11:32:19.287Z,16.93
2024-02-08T11:34:48.677Z,17.27
2024-02-08T11:37:17.681Z,17.61
2024-02-08T11:39:49.133Z,17.78
2024-02-08T11:42:19.180Z,17.76
2024-02-08T11:44:59.008Z,17.75
2024-02-08T11:47:27.568Z,17.88
2024-02-08T11:50:03.077Z,18.00
2024-02-08T11:52:35.079Z,17.95
2024-02-08T11:55:15.301Z,17.97
2024-02-08T11:57:44.317Z,18.12
2024-02-08T12:00:18.054Z,18.28
2024-02-08T12:02:49.019Z,18.51
2024-02-08T12:05:21.410Z,18.39
2024-02-08T12:07:50.148Z,18.44
2024-02-08T12:10:23.596Z,18.39
2024-02-08T12:12:55.021Z,18.03
2024-02-08T12:15:23.305Z,17.07
2024-02-08T12:17:54.339Z,17.18
2024-02-08T12:20:24.833Z,16.99
2024-02-08T12:22:54.557Z,17.14
2024-02-08T12:25:22.948Z,17.14
2024-02-08T12:27:58.979Z,17.15
2024-02-08T12:30:34.864Z,17.36
2024-02-08T12:33:11.496Z,17.56
2024-02-08T12:35:42.339Z,17.54
2024-02-08T12:38:12.914Z,17.60
2024-02-08T12:40:45.404Z,17.90
2024-02-08T12:43:15.462Z,17.76
2024-02-08T12:45:44.072Z,17.90
2024-02-08T12:48:17.620Z,18.16
2024-02-08T12:50:47.168Z,18.30
2024-02-08T12:53:20.160Z,18.40
2024-02-08T12:55:48.761Z,18.39
2024-02-08T12:58:20.326Z,18.36
2024-02-08T13:01:06.233Z,18.19
2024-02-08T13:03:37.952Z,17.97
2024-02-08T13:06:15.794Z,17.95
2024-02-08T13:08:47.094Z,18.05
2024-02-08T13:11:24.192Z,18.13
2024-02-08T13:13:55.718Z,18.14
2024-02-08T13:16:24.120Z,18.18
2024-02-08T13:19:01.585Z,17.84
2024-02-08T13:21:30.160Z,17.70
2024-02-08T13:23:58.557Z,17.64
2024-02-08T13:26:33.192Z,17.34
2024-02-08T13:29:05.522Z,17.14
2024-02-08T13:31:33.861Z,16.92
2024-02-08T13:34:02.826Z,16.65
2024-02-08T13:36:31.712Z,16.68
2024-02-08T13:39:01.629Z,16.23
2024-02-08T13:41:30.030Z,16.19
2024-02-08T13:43:58.547Z,16.26
2024-02-08T13:46:32.315Z,16.24
2024-02-08T13:49:02.006Z,16.17
2024-02-08T13:51:30.581Z,16.11
2024-02-08T13:53:58.736Z,16.15
2024-02-08T13:56:28.887Z,16.10
2024-02-08T13:59:01.859Z,16.16
2024-02-08T14:01:30.539Z,16.21
2024-02-08T14:04:00.588Z,16.12
2024-02-08T14:06:31.235Z,15.95
2024-02-08T14:09:19.719Z,15.97
2024-02-08T14:11:53.623Z,15.99
2024-02-08T14:14:30.790Z,16.12
2024-02-08T14:17:00.147Z,16.33
2024-02-08T14:19:35.453Z,16.49
2024-02-08T14:22:07.972Z,16.57
2024-02-08T14:24:39.969Z,16.60
2024-02-08T14:27:08.375Z,16.65
2024-02-08T14:29:39.642Z,16.62
2024-02-08T14:32:20.999Z,16.40
2024-02-08T14:35:00.224Z,16.20
2024-02-08T14:37:30.017Z,16.04
2024-02-08T14:39:58.307Z,15.77
2024-02-08T14:42:29.272Z,15.38
2024-02-08T14:44:58.036Z,14.99
2024-02-08T14:47:27.166Z,14.75
2024-02-08T14:49:57.411Z,14.62
2024-02-08T14:52:30.788Z,14.52
2024-02-08T14:55:00.678Z,14.41
2024-02-08T14:57:40.327Z,14.30
2024-02-08T15:00:29.132Z,14.25
2024-02-08T15:03:10.406Z,14.16
2024-02-08T15:06:01.195Z,13.92
2024-02-08T15:08:30.168Z,13.80
2024-02-08T15:11:05.276Z,13.69
2024-02-08T15:13:51.172Z,13.61
2024-02-08T15:16:23.779Z,13.51
2024-02-08T15:18:56.082Z,13.43
2024-02-08T15:21:26.253Z,13.37
2024-02-08T15:24:10.173Z,13.26
2024-02-08T15:26:39.767Z,13.15
2024-02-08T15:29:10.770Z,13.05
2024-02-08T15:31:57.525Z,12.95
2024-02-08T15:34:44.706Z,12.88
2024-02-08T15:37:15.308Z,12.90
2024-02-08T15:39:43.784Z,12.99
2024-02-08T15:42:19.121Z,13.07
2024-02-08T15:44:54.769Z,13.01
2024-02-08T15:47:23.699Z,13.08
2024-02-08T15:49:56.556Z,13.27
2024-02-08T15:52:35.930Z,13.51
2024-02-08T15:55:17.215Z,13.74
2024-02-08T15:57:55.986Z,13.94
2024-02-08T16:00:43.381Z,13.87
2024-02-08T16:03:19.576Z,13.90
2024-02-08T16:05:48.259Z,13.97
2024-02-08T16:08:16.759Z,14.14
2024-02-08T16:10:46.130Z,14.27
2024-02-08T16:13:15.334Z,14.36
2024-02-08T16:15:58.868Z,14.42
2024-02-08T16:18:30.631Z,14.26
2024-02-08T16:21:00.803Z,14.22
2024-02-08T16:23:29.293Z,14.26
2024-02-08T16:26:06.733Z,14.25
2024-02-08T16:28:55.140Z,14.12
2024-02-08T16:31:26.240Z,13.87
2024-02-08T16:33:54.932Z,13.92
2024-02-08T16:36:27.521Z,13.97
2024-02-08T16:39:08.398Z,14.12
2024-02-08T16:41:49.898Z,14.16
2024-02-08T16:44:23.823Z,14.15
2024-02-08T16:46:56.995Z,14.15
2024-02-08T16:49:29.429Z,14.09
2024-02-08T16:51:58.544Z,13.88
2024-02-08T16:54:36.805Z,13.74
2024-02-08T16:57:08.458Z,13.68
2024-02-08T16:59:49.616Z,13.51
2024-02-08T17:02:28.617Z,13.37
2024-02-08T17:05:11.129Z,13.24
2024-02-08T17:07:46.512Z,13.18
2024-02-08T17:10:37.569Z,13.15
2024-02-08T17:13:17.399Z,13.06
2024-02-08T17:16:05.223Z,13.03
2024-02-08T17:18:48.287Z,13.04
2024-02-08T17:21:37.836Z,12.97
2024-02-08T17:24:10.200Z,12.86
2024-02-08T17:26:39.411Z,12.81
2024-02-08T17:29:21.187Z,12.68
2024-02-08T17:31:50.325Z,12.56
2024-02-08T17:34:23.987Z,12.46
2024-02-08T17:36:56.232Z,12.40
2024-02-08T17:39:41.919Z,12.37
2024-02-08T17:42:12.188Z,12.26
2024-02-08T17:44:42.496Z,12.23
2024-02-08T17:47:11.765Z,12.00
2024-02-08T17:49:40.651Z,11.76
2024-02-08T17:52:08.896Z,11.56
2024-02-08T17:55:00.253Z,11.32
2024-02-08T17:57:30.227Z,11.21
2024-02-08T18:00:01.945Z,11.01
2024-02-08T18:02:33.565Z,10.74
2024-02-08T18:05:10.524Z,10.72
2024-02-08T18:07:38.947Z,10.76
2024-02-08T18:10:22.123Z,10.78
2024-02-08T18:12:56.715Z,10.80
2024-02-08T18:15:26.812Z,10.82
2024-02-08T18:17:57.777Z,10.81
2024-02-08T18:20:31.613Z,10.67
2024-02-08T18:23:04.334Z,10.56
2024-02-08T18:25:37.611Z,10.67
2024-02-08T18:28:11.165Z,10.79
2024-02-08T18:30:39.680Z,10.89
2024-02-08T18:33:10.332Z,10.89
2024-02-08T18:35:38.989Z,10.72
2024-02-08T18:38:11.473Z,10.69
2024-02-08T18:40:40.421Z,10.74
2024-02-08T18:43:14.949Z,10.77
2024-02-08T18:45:50.296Z,10.77
2024-02-08T18:48:22.121Z,10.60
2024-02-08T18:50:51.714Z,10.53
2024-02-08T18:53:20.275Z,10.59
2024-02-08T18:55:52.716Z,10.51
2024-02-08T18:58:23.168Z,10.36
2024-02-08T19:00:56.405Z,10.39
2024-02-08T19:03:28.797Z,10.43
2024-02-08T19:06:01.443Z,10.44
2024-02-08T19:08:37.760Z,10.49
2024-02-08T19:11:07.888Z,10.59
2024-02-08T19:13:40.605Z,10.79
2024-02-08T19:16:13.709Z,10.84
2024-02-08T19:18:58.881Z,10.73
2024-02-08T19:21:32.916Z,10.60
2024-02-08T19:24:05.746Z,10.50
2024-02-08T19:26:34.912Z,10.44
2024-02-08T19:29:08.130Z,10.15
2024-02-08T19:31:43.352Z,10.23
2024-02-08T19:34:19.504Z,10.23
2024-02-08T19:37:09.564Z,10.31
2024-02-08T19:39:42.726Z,10.42
2024-02-08T19:42:32.387Z,10.47
2024-02-08T19:45:13.164Z,10.44
2024-02-08T19:47:43.618Z,10.31
2024-02-08T19:50:18.694Z,10.29
2024-02-08T19:52:48.910Z,10.22
2024-02-08T19:55:30.313Z,10.29
2024-02-08T19:57:59.753Z,10.29
2024-02-08T20:00:31.820Z,10.37
2024-02-08T20:03:08.877Z,10.29
2024-02-08T20:05:38.594Z,10.27
2024-02-08T20:08:13.457Z,10.35
2024-02-08T20:10:42.790Z,10.39
2024-02-08T20:13:16.224Z,10.57
2024-02-08T20:15:49.407Z,10.55
2024-02-08T20:18:22.452Z,10.32
2024-02-08T20:20:54.375Z,10.17
2024-02-08T20:23:33.333Z,10.19
2024-02-08T20:26:02.549Z,10.21
2024-02-08T20:28:32.710Z,10.16
2024-02-08T20:31:06.982Z,10.07
2024-02-08T20:33:37.851Z,10.17
2024-02-08T20:36:10.046Z,9.92
2024-02-08T20:38:38.880Z,9.78
2024-02-08T20:41:08.510Z,9.89
2024-02-08T20:43:38.440Z,9.90
2024-02-08T20:46:07.066Z,9.93
2024-02-08T20:48:35.555Z,9.98
2024-02-08T20:51:08.564Z,9.94
2024-02-08T20:53:37.173Z,9.85
2024-02-08T20:56:07.495Z,9.85
2024-02-08T20:58:41.702Z,9.93
2024-02-08T21:01:12.169Z,10.10
2024-02-08T21:03:40.736Z,9.99
2024-02-08T21:06:09.472Z,9.53
2024-02-08T21:08:39.569Z,9.52
2024-02-08T21:11:08.260Z,9.49
2024-02-08T21:13:36.587Z,9.45
2024-02-08T21:16:05.823Z,9.41
2024-02-08T21:18:38.332Z,9.40
2024-02-08T21:21:07.658Z,9.44
2024-02-08T21:23:36.371Z,9.42
2024-02-08T21:26:10.124Z,9.58
2024-02-08T21:28:39.549Z,9.69
2024-02-08T21:31:07.973Z,9.75
2024-02-08T21:33:39.232Z,9.70
2024-02-08T21:36:07.748Z,9.56
2024-02-08T21:38:36.029Z,9.57
2024-02-08T21:41:07.442Z,9.61
2024-02-08T21:43:36.719Z,9.35
2024-02-08T21:46:05.554Z,9.24
2024-02-08T21:48:34.552Z,9.35
2024-02-08T21:51:07.938Z,9.29
2024-02-08T21:53:36.829Z,9.27
2024-02-08T21:56:14.078Z,9.20
2024-02-08T21:58:45.168Z,9.20
2024-02-08T22:04:01.586Z,9.22
2024-02-08T22:06:34.196Z,9.35
2024-02-08T22:09:12.977Z,9.55
2024-02-08T22:11:55.109Z,9.80
2024-02-08T22:14:26.501Z,9.99
2024-02-08T22:16:59.435Z,10.08
2024-02-08T22:19:34.713Z,10.15
2024-02-08T22:22:02.956Z,10.19
2024-02-08T22:24:31.368Z,10.05
2024-02-08T22:26:59.848Z,10.01
2024-02-08T22:29:28.531Z,9.52
2024-02-08T22:31:57.440Z,9.44
2024-02-08T22:34:26.435Z,9.22
2024-02-08T22:36:55.098Z,8.82
2024-02-08T22:39:25.879Z,8.61
2024-02-08T22:41:58.669Z,8.37
2024-02-08T22:44:28.612Z,8.34
2024-02-08T22:46:56.982Z,8.51
2024-02-08T22:49:26.749Z,8.51
2024-02-08T22:51:55.184Z,8.53
2024-02-08T22:54:25.330Z,8.61
2024-02-08T22:56:53.744Z,8.51
2024-02-08T22:59:23.033Z,8.36
2024-02-08T23:01:54.644Z,8.40
2024-02-08T23:04:24.551Z,8.47
2024-02-08T23:06:53.358Z,8.44
2024-02-08T23:09:21.748Z,8.44
2024-02-08T23:11:53.223Z,8.46
2024-02-08T23:14:23.435Z,8.21
2024-02-08T23:16:53.133Z,8.29
2024-02-08T23:19:22.198Z,8.50
2024-02-08T23:21:53.795Z,8.67
2024-02-08T23:24:26.324Z,8.42
2024-02-08T23:26:54.821Z,8.52
2024-02-08T23:29:25.837Z,8.91
2024-02-08T23:31:54.416Z,9.02
2024-02-08T23:34:25.259Z,8.98
2024-02-08T23:36:56.125Z,8.98
2024-02-08T23:39:29.193Z,8.87
2024-02-08T23:41:58.047Z,8.62
2024-02-08T23:44:29.941Z,8.47
2024-02-08T23:46:59.661Z,8.48
2024-02-08T23:49:28.925Z,8.48
2024-02-08T23:52:00.023Z,8.32
2024-02-08T23:54:28.668Z,8.32
2024-02-08T23:56:57.158Z,8.44
2024-02-08T23:59:25.406Z,8.53
